createdAt,value
2022-12-08T00:01:09.072Z,101194.66
2022-12-08T00:03:38.855Z,101209.50
2022-12-08T00:06:07.658Z,101199.38
2022-12-08T00:08:35.912Z,101199.34
2022-12-08T00:11:02.625Z,101178.38
2022-12-08T00:13:29.499Z,101189.59
2022-12-08T00:16:00.722Z,101164.16
2022-12-08T00:18:27.168Z,101163.84
2022-12-08T00:20:57.768Z,101164.38
2022-12-08T00:23:24.423Z,101095.00
2022-12-08T00:25:51.143Z,101154.44
2022-12-08T00:28:17.690Z,101155.25
2022-12-08T00:30:44.577Z,101159.59
2022-12-08T00:33:12.132Z,101149.34
2022-12-08T00:35:42.926Z,101156.72
2022-12-08T00:38:09.887Z,101150.44
2022-12-08T00:40:36.496Z,101145.94
2022-12-08T00:43:03.207Z,101079.53
2022-12-08T00:45:29.709Z,101099.38
2022-12-08T00:47:56.207Z,101155.53
2022-12-08T00:50:22.798Z,101154.06
2022-12-08T00:52:49.302Z,101153.63
2022-12-08T00:55:15.987Z,101159.09
2022-12-08T00:57:42.582Z,101159.44
2022-12-08T01:00:09.569Z,101143.81
2022-12-08T01:02:39.384Z,101150.75
2022-12-08T01:05:06.434Z,101094.03
2022-12-08T01:07:33.624Z,101152.94
2022-12-08T01:10:00.843Z,101142.03
2022-12-08T01:12:29.605Z,101131.94
2022-12-08T01:15:01.937Z,101145.13
2022-12-08T01:17:28.852Z,101147.25
2022-12-08T01:19:55.294Z,101138.44
2022-12-08T01:22:21.771Z,101123.16
2022-12-08T01:24:48.326Z,101125.28
2022-12-08T01:27:16.120Z,101063.69
2022-12-08T01:29:42.589Z,101126.03
2022-12-08T01:32:09.595Z,101108.28
2022-12-08T01:34:36.150Z,101111.94
2022-12-08T01:37:02.899Z,101115.03
2022-12-08T01:39:29.500Z,101059.91
2022-12-08T01:41:56.014Z,101111.66
2022-12-08T01:44:22.417Z,101128.66
2022-12-08T01:46:48.987Z,101134.75
2022-12-08T01:49:18.594Z,101132.03
2022-12-08T01:51:57.072Z,101111.38
2022-12-08T01:54:26.737Z,101123.16
2022-12-08T01:57:00.774Z,101121.91
2022-12-08T01:59:30.467Z,101051.63
2022-12-08T02:01:57.888Z,101116.59
2022-12-08T02:04:24.384Z,101039.81
2022-12-08T02:06:51.671Z,101087.03
2022-12-08T02:09:20.106Z,101081.75
2022-12-08T02:11:46.988Z,101101.78
2022-12-08T02:14:14.466Z,101104.66
2022-12-08T02:17:03.261Z,101103.63
2022-12-08T02:19:53.850Z,101105.25
2022-12-08T02:22:43.678Z,101114.91
2022-12-08T02:25:22.724Z,101102.13
2022-12-08T02:28:06.216Z,101102.38
2022-12-08T02:30:41.679Z,101059.84
2022-12-08T02:33:27.849Z,101096.53
2022-12-08T02:35:59.678Z,101086.16
2022-12-08T02:38:45.759Z,101020.06
2022-12-08T02:41:37.905Z,101053.28
2022-12-08T02:44:07.108Z,101095.44
2022-12-08T02:46:44.406Z,101074.34
2022-12-08T02:49:10.913Z,101089.59
2022-12-08T02:51:37.349Z,101096.09
2022-12-08T02:54:03.884Z,101078.75
2022-12-08T02:56:57.497Z,101049.56
2022-12-08T02:59:51.300Z,101065.72
2022-12-08T03:02:20.443Z,101080.44
2022-12-08T03:04:58.831Z,101071.19
2022-12-08T03:07:45.657Z,101012.16
2022-12-08T03:10:33.043Z,101092.03
2022-12-08T03:13:07.527Z,100974.72
2022-12-08T03:15:36.976Z,101044.69
2022-12-08T03:18:06.418Z,101035.25
2022-12-08T03:20:34.545Z,100976.84
2022-12-08T03:23:05.323Z,101044.22
2022-12-08T03:25:36.334Z,100966.81
2022-12-08T03:28:02.879Z,100945.69
2022-12-08T03:30:32.367Z,100964.41
2022-12-08T03:33:07.707Z,100967.09
2022-12-08T03:35:38.143Z,100997.19
2022-12-08T03:38:16.473Z,101001.91
2022-12-08T03:40:44.265Z,101007.13
2022-12-08T03:43:10.763Z,100999.41
2022-12-08T03:45:37.153Z,101003.09
2022-12-08T03:48:03.732Z,100995.81
2022-12-08T03:50:30.192Z,100984.84
2022-12-08T03:52:56.640Z,101001.91
2022-12-08T03:55:23.045Z,100996.03
2022-12-08T03:57:49.489Z,100999.59
2022-12-08T04:00:16.899Z,101001.13
2022-12-08T04:02:43.724Z,100995.69
2022-12-08T04:05:10.497Z,100966.88
2022-12-08T04:07:37.001Z,100912.25
2022-12-08T04:10:04.490Z,100906.81
2022-12-08T04:12:31.095Z,100980.66
2022-12-08T04:14:57.519Z,100910.28
2022-12-08T04:17:23.901Z,100909.88
2022-12-08T04:19:50.293Z,100920.50
2022-12-08T04:22:16.739Z,100987.28
2022-12-08T04:24:43.145Z,100955.38
2022-12-08T04:27:09.543Z,100964.34
2022-12-08T04:29:36.021Z,100993.09
2022-12-08T04:32:02.466Z,100969.25
2022-12-08T04:34:28.898Z,100949.97
2022-12-08T04:36:55.307Z,100943.78
2022-12-08T04:39:21.760Z,100957.22
2022-12-08T04:41:48.209Z,100969.03
2022-12-08T04:44:14.616Z,100953.06
2022-12-08T04:46:43.531Z,100955.13
2022-12-08T04:49:10.453Z,100942.84
2022-12-08T04:51:37.001Z,100904.44
2022-12-08T04:54:03.472Z,100962.97
2022-12-08T04:56:29.895Z,100924.00
2022-12-08T04:58:56.312Z,100928.13
2022-12-08T05:01:22.870Z,100903.00
2022-12-08T05:03:49.296Z,100857.59
2022-12-08T05:06:16.254Z,100862.97
2022-12-08T05:08:43.236Z,100856.00
2022-12-08T05:11:11.167Z,100921.53
2022-12-08T05:13:37.585Z,100846.47
2022-12-08T05:16:09.468Z,100926.56
2022-12-08T05:18:36.826Z,100848.16
2022-12-08T05:21:04.096Z,100879.00
2022-12-08T05:23:31.002Z,100932.03
2022-12-08T05:25:57.632Z,100929.47
2022-12-08T05:31:15.133Z,100856.84
2022-12-08T05:33:42.289Z,100843.59
2022-12-08T05:36:09.990Z,100905.41
2022-12-08T05:38:36.384Z,100873.88
2022-12-08T05:41:02.819Z,100844.31
2022-12-08T05:43:29.323Z,100848.19
2022-12-08T05:45:55.852Z,100926.28
2022-12-08T05:48:22.379Z,100888.47
2022-12-08T05:50:50.087Z,100768.03
2022-12-08T05:53:17.745Z,100878.50
2022-12-08T05:55:44.606Z,100894.50
2022-12-08T05:58:20.843Z,100878.84
2022-12-08T06:00:48.607Z,100886.75
2022-12-08T06:03:16.658Z,100895.50
2022-12-08T06:05:45.586Z,100898.22
2022-12-08T06:08:12.950Z,100888.00
2022-12-08T06:10:41.332Z,100884.31
2022-12-08T06:13:08.538Z,100863.41
2022-12-08T06:15:38.864Z,100909.50
2022-12-08T06:18:05.491Z,100897.00
2022-12-08T06:20:32.058Z,100899.28
2022-12-08T06:22:58.516Z,100886.88
2022-12-08T06:25:25.196Z,100882.13
2022-12-08T06:27:51.638Z,100824.31
2022-12-08T06:30:18.210Z,100772.06
2022-12-08T06:32:44.607Z,100894.66
2022-12-08T06:35:11.068Z,100903.84
2022-12-08T06:37:37.492Z,100833.41
2022-12-08T06:40:04.486Z,100899.16
2022-12-08T06:42:31.147Z,100859.81
2022-12-08T06:44:57.646Z,100906.38
2022-12-08T06:47:26.300Z,100841.81
2022-12-08T06:49:52.946Z,100904.16
2022-12-08T06:52:19.347Z,100907.88
2022-12-08T06:54:45.747Z,100905.41
2022-12-08T06:57:12.145Z,100885.34
2022-12-08T06:59:39.505Z,100901.69
2022-12-08T07:02:06.057Z,100848.84
2022-12-08T07:04:32.531Z,100910.56
2022-12-08T07:06:58.964Z,100855.63
2022-12-08T07:09:25.394Z,100877.69
2022-12-08T07:11:51.862Z,100902.59
2022-12-08T07:14:18.298Z,100900.34
2022-12-08T07:16:44.816Z,100888.38
2022-12-08T07:19:11.298Z,100833.75
2022-12-08T07:21:37.682Z,100853.59
2022-12-08T07:24:04.335Z,100917.13
2022-12-08T07:26:30.716Z,100906.22
2022-12-08T07:28:57.172Z,100852.81
2022-12-08T07:31:24.850Z,100919.75
2022-12-08T07:33:52.503Z,100917.94
2022-12-08T07:36:19.273Z,100861.94
2022-12-08T07:38:45.907Z,100928.16
2022-12-08T07:41:17.445Z,100922.06
2022-12-08T07:43:44.269Z,100860.13
2022-12-08T07:46:15.526Z,100893.25
2022-12-08T07:48:42.813Z,100920.03
2022-12-08T07:51:11.621Z,100922.69
2022-12-08T07:53:42.425Z,100877.44
2022-12-08T07:56:10.928Z,100923.63
2022-12-08T07:58:37.453Z,100849.31
2022-12-08T08:01:04.486Z,100864.56
2022-12-08T08:03:31.149Z,100921.13
2022-12-08T08:06:04.769Z,100924.56
2022-12-08T08:08:31.753Z,100867.22
2022-12-08T08:10:58.686Z,100927.34
2022-12-08T08:13:25.150Z,100920.56
2022-12-08T08:15:51.663Z,100925.06
2022-12-08T08:18:18.164Z,100855.50
2022-12-08T08:20:44.613Z,100916.06
2022-12-08T08:23:11.049Z,100904.34
2022-12-08T08:25:37.455Z,100850.88
2022-12-08T08:28:03.880Z,100847.97
2022-12-08T08:30:30.293Z,100887.91
2022-12-08T08:32:56.684Z,100893.69
2022-12-08T08:35:23.065Z,100907.19
2022-12-08T08:37:49.743Z,100900.41
2022-12-08T08:40:17.449Z,100822.97
2022-12-08T08:42:43.852Z,100821.81
2022-12-08T08:45:10.814Z,100892.09
2022-12-08T08:47:37.297Z,100895.88
2022-12-08T08:50:04.632Z,100824.72
2022-12-08T08:52:31.249Z,100865.84
2022-12-08T08:54:57.689Z,100868.63
2022-12-08T08:57:25.968Z,100884.97
2022-12-08T08:59:53.248Z,100867.84
2022-12-08T09:02:20.950Z,100874.91
2022-12-08T09:04:47.538Z,100839.31
2022-12-08T09:07:15.012Z,100866.72
2022-12-08T09:09:41.621Z,100874.84
2022-12-08T09:12:08.295Z,100858.38
2022-12-08T09:14:34.925Z,100840.63
2022-12-08T09:17:01.366Z,100871.06
2022-12-08T09:19:27.835Z,100861.25
2022-12-08T09:21:54.325Z,100841.94
2022-12-08T09:24:20.776Z,100847.56
2022-12-08T09:26:47.208Z,100848.81
2022-12-08T09:29:13.699Z,100866.09
2022-12-08T09:31:40.990Z,100803.69
2022-12-08T09:34:07.513Z,100815.25
2022-12-08T09:36:33.941Z,100864.66
2022-12-08T09:39:00.466Z,100866.47
2022-12-08T09:41:58.313Z,100798.28
2022-12-08T09:45:01.970Z,100856.75
2022-12-08T09:47:42.415Z,100862.56
2022-12-08T09:50:30.934Z,100856.16
2022-12-08T09:53:06.124Z,100860.13
2022-12-08T09:55:55.620Z,100814.91
2022-12-08T09:58:31.717Z,100803.13
2022-12-08T10:00:58.509Z,100850.47
2022-12-08T10:03:29.366Z,100845.09
2022-12-08T10:06:33.379Z,100857.75
2022-12-08T10:09:17.171Z,100851.91
2022-12-08T10:12:05.381Z,100811.03
2022-12-08T10:14:43.598Z,100820.41
2022-12-08T10:17:26.666Z,100857.59
2022-12-08T10:20:15.998Z,100843.28
2022-12-08T10:22:44.979Z,100842.66
2022-12-08T10:25:28.525Z,100845.22
2022-12-08T10:28:00.870Z,100688.56
2022-12-08T10:30:27.256Z,100833.03
2022-12-08T10:32:53.923Z,100818.28
2022-12-08T10:35:23.504Z,100821.16
2022-12-08T10:37:58.312Z,100824.69
2022-12-08T10:40:28.745Z,100776.13
2022-12-08T10:42:57.667Z,100831.38
2022-12-08T10:45:26.832Z,100777.09
2022-12-08T10:48:00.989Z,100847.59
2022-12-08T10:50:36.824Z,100838.91
2022-12-08T10:53:09.050Z,100849.41
2022-12-08T10:55:51.283Z,100849.56
2022-12-08T10:58:32.665Z,100859.06
2022-12-08T11:01:13.337Z,100788.97
2022-12-08T11:03:48.534Z,100855.53
2022-12-08T11:06:22.344Z,100776.88
2022-12-08T11:08:52.826Z,100782.09
2022-12-08T11:11:27.493Z,100841.72
2022-12-08T11:13:56.292Z,100836.00
2022-12-08T11:16:23.575Z,100808.06
2022-12-08T11:18:56.724Z,100783.09
2022-12-08T11:21:36.412Z,100765.50
2022-12-08T11:24:23.793Z,100817.41
2022-12-08T11:26:54.818Z,100801.63
2022-12-08T11:29:22.013Z,100816.19
2022-12-08T11:31:54.653Z,100771.97
2022-12-08T11:34:53.196Z,100799.03
2022-12-08T11:37:34.482Z,100799.53
2022-12-08T11:40:07.127Z,100769.50
2022-12-08T11:42:44.207Z,100792.69
2022-12-08T11:45:20.262Z,100777.56
2022-12-08T11:47:56.146Z,100785.69
2022-12-08T11:50:29.439Z,100785.81
2022-12-08T11:52:58.543Z,100703.25
2022-12-08T11:55:48.099Z,100758.72
2022-12-08T11:58:36.207Z,100701.41
2022-12-08T12:01:02.789Z,100764.72
2022-12-08T12:03:44.436Z,100749.47
2022-12-08T12:07:00.358Z,100697.41
2022-12-08T12:09:45.774Z,100693.75
2022-12-08T12:12:41.171Z,100746.03
2022-12-08T12:15:43.517Z,100756.69
2022-12-08T12:18:22.305Z,100746.13
2022-12-08T12:21:20.191Z,100747.25
2022-12-08T12:23:57.672Z,100678.25
2022-12-08T12:26:28.125Z,100703.28
2022-12-08T12:29:07.659Z,100686.41
2022-12-08T12:31:40.326Z,100690.72
2022-12-08T12:34:21.329Z,100749.91
2022-12-08T12:36:55.653Z,100756.31
2022-12-08T12:39:29.325Z,100728.41
2022-12-08T12:42:01.585Z,100753.47
2022-12-08T12:44:27.937Z,100744.81
2022-12-08T12:46:57.438Z,100732.34
2022-12-08T12:49:38.988Z,100738.47
2022-12-08T12:52:17.279Z,100728.53
2022-12-08T12:54:45.508Z,100740.06
2022-12-08T12:57:11.823Z,100726.56
2022-12-08T12:59:55.488Z,100727.56
2022-12-08T13:02:31.366Z,100739.44
2022-12-08T13:05:14.961Z,100736.69
2022-12-08T13:08:01.038Z,100732.00
2022-12-08T13:10:32.317Z,100730.22
2022-12-08T13:13:10.979Z,100730.72
2022-12-08T13:15:41.644Z,100727.56
2022-12-08T13:18:28.619Z,100701.09
2022-12-08T13:21:04.263Z,100716.53
2022-12-08T13:23:36.896Z,100727.25
2022-12-08T13:26:11.020Z,100723.06
2022-12-08T13:28:59.390Z,100735.53
2022-12-08T13:31:52.220Z,100731.66
2022-12-08T13:34:59.880Z,100737.69
2022-12-08T13:37:42.183Z,100675.38
2022-12-08T13:40:19.087Z,100728.72
2022-12-08T13:43:05.933Z,100669.69
2022-12-08T13:46:18.331Z,100721.84
2022-12-08T13:49:32.059Z,100665.13
2022-12-08T13:57:27.940Z,100657.13
2022-12-08T13:59:54.414Z,100724.06
2022-12-08T14:02:33.028Z,100667.91
2022-12-08T14:07:48.405Z,100716.13
2022-12-08T14:10:22.315Z,100705.41
2022-12-08T14:12:55.976Z,100651.75
2022-12-08T14:15:22.562Z,100634.06
2022-12-08T14:17:54.711Z,100564.06
2022-12-08T14:20:33.837Z,100649.50
2022-12-08T14:23:08.904Z,100645.00
2022-12-08T14:25:35.776Z,100659.16
2022-12-08T14:28:04.141Z,100704.81
2022-12-08T14:30:32.508Z,100717.56
2022-12-08T14:33:00.872Z,100732.38
2022-12-08T14:35:33.250Z,100743.81
2022-12-08T14:38:05.698Z,100741.06
2022-12-08T14:40:38.914Z,100748.03
2022-12-08T14:43:08.246Z,100742.69
2022-12-08T14:45:45.155Z,100690.56
2022-12-08T14:48:32.840Z,100753.91
2022-12-08T14:51:12.502Z,100746.69
2022-12-08T14:53:42.383Z,100719.81
2022-12-08T14:56:17.979Z,100767.66
2022-12-08T14:58:44.772Z,100759.31
2022-12-08T15:01:14.753Z,100738.41
2022-12-08T15:03:44.625Z,100741.72
2022-12-08T15:06:13.933Z,100729.91
2022-12-08T15:08:57.459Z,100731.75
2022-12-08T15:11:23.874Z,100746.94
2022-12-08T15:13:52.939Z,100724.00
2022-12-08T15:16:38.663Z,100759.88
2022-12-08T15:19:27.266Z,100752.41
2022-12-08T15:21:55.378Z,100760.28
2022-12-08T15:24:25.706Z,100770.28
2022-12-08T15:26:52.996Z,100746.41
2022-12-08T15:29:28.037Z,100704.53
2022-12-08T15:31:57.894Z,100751.84
2022-12-08T15:34:24.843Z,100728.41
2022-12-08T15:36:53.236Z,100754.75
2022-12-08T15:39:28.497Z,100699.06
2022-12-08T15:41:54.943Z,100746.94
2022-12-08T15:44:21.355Z,100734.09
2022-12-08T15:46:47.835Z,100736.72
2022-12-08T15:49:17.928Z,100744.06
2022-12-08T15:51:45.194Z,100710.00
2022-12-08T15:54:11.866Z,100738.91
2022-12-08T15:57:02.974Z,100725.72
2022-12-08T15:59:28.991Z,100657.50
2022-12-08T16:01:55.419Z,100738.22
2022-12-08T16:05:25.232Z,100669.97
2022-12-08T16:07:27.394Z,100725.28
2022-12-08T16:09:54.952Z,100662.91
2022-12-08T16:12:25.478Z,100745.63
2022-12-08T16:17:40.184Z,100669.56
2022-12-08T16:20:13.153Z,100674.25
2022-12-08T16:23:03.600Z,100650.19
2022-12-08T16:25:26.654Z,100734.28
2022-12-08T16:28:02.846Z,100723.78
2022-12-08T16:30:35.216Z,100744.34
2022-12-08T16:33:01.919Z,100724.50
2022-12-08T16:35:28.682Z,100736.78
2022-12-08T16:37:55.240Z,100739.94
2022-12-08T16:40:22.055Z,100738.44
2022-12-08T16:42:48.867Z,100746.06
2022-12-08T16:45:21.338Z,100669.13
2022-12-08T16:47:57.372Z,100727.47
2022-12-08T16:50:33.113Z,100661.25
2022-12-08T16:53:03.287Z,100714.50
2022-12-08T16:55:30.303Z,100731.56
2022-12-08T16:57:57.275Z,100649.25
2022-12-08T17:00:26.019Z,100630.25
2022-12-08T17:02:53.534Z,100708.41
2022-12-08T17:05:21.968Z,100710.94
2022-12-08T17:07:50.534Z,100689.34
2022-12-08T17:10:23.613Z,100642.47
2022-12-08T17:12:51.188Z,100731.47
2022-12-08T17:15:20.912Z,100705.88
2022-12-08T17:17:47.549Z,100687.09
2022-12-08T17:20:34.243Z,100698.66
2022-12-08T17:23:00.675Z,100691.59
2022-12-08T17:25:27.422Z,100688.66
2022-12-08T17:27:54.417Z,100690.47
2022-12-08T17:30:20.963Z,100621.34
2022-12-08T17:32:47.537Z,100700.84
2022-12-08T17:35:13.998Z,100637.59
2022-12-08T17:37:40.836Z,100681.59
2022-12-08T17:40:08.244Z,100683.41
2022-12-08T17:42:34.763Z,100685.63
2022-12-08T17:45:01.173Z,100678.16
2022-12-08T17:47:27.648Z,100683.50
2022-12-08T17:49:54.039Z,100665.38
2022-12-08T17:52:20.463Z,100667.34
2022-12-08T17:54:46.896Z,100676.03
2022-12-08T17:57:13.343Z,100663.44
2022-12-08T17:59:39.969Z,100662.22
2022-12-08T18:02:06.717Z,100607.00
2022-12-08T18:04:33.211Z,100665.81
2022-12-08T18:06:59.631Z,100587.09
2022-12-08T18:09:26.156Z,100596.19
2022-12-08T18:11:52.709Z,100678.56
2022-12-08T18:14:19.152Z,100682.91
2022-12-08T18:16:46.735Z,100628.38
2022-12-08T18:19:14.420Z,100690.78
2022-12-08T18:21:42.021Z,100680.16
2022-12-08T18:24:15.200Z,100674.16
2022-12-08T18:26:41.588Z,100674.16
2022-12-08T18:29:08.046Z,100614.50
2022-12-08T18:31:34.468Z,100698.84
2022-12-08T18:34:00.897Z,100702.38
2022-12-08T18:36:27.329Z,100706.56
2022-12-08T18:38:53.830Z,100710.78
2022-12-08T18:41:23.423Z,100697.13
2022-12-08T18:43:50.639Z,100698.44
2022-12-08T18:46:17.098Z,100668.53
2022-12-08T18:48:47.503Z,100605.88
2022-12-08T18:51:16.826Z,100686.16
2022-12-08T18:53:44.379Z,100695.78
2022-12-08T18:56:27.612Z,100688.41
2022-12-08T18:59:01.280Z,100678.56
2022-12-08T19:01:30.191Z,100666.16
2022-12-08T19:06:47.548Z,100696.56
2022-12-08T19:09:14.003Z,100682.22
2022-12-08T19:11:41.917Z,100690.16
2022-12-08T19:14:09.142Z,100673.69
2022-12-08T19:16:35.999Z,100685.75
2022-12-08T19:19:03.393Z,100682.22
2022-12-08T19:21:32.206Z,100674.75
2022-12-08T19:23:58.579Z,100606.13
2022-12-08T19:26:27.183Z,100667.47
2022-12-08T19:28:53.956Z,100686.22
2022-12-08T19:31:20.655Z,100694.22
2022-12-08T19:33:47.098Z,100687.84
2022-12-08T19:36:16.715Z,100701.78
2022-12-08T19:38:43.505Z,100662.38
2022-12-08T19:41:10.130Z,100687.66
2022-12-08T19:43:36.659Z,100707.00
2022-12-08T19:46:03.232Z,100700.69
2022-12-08T19:48:29.824Z,100614.16
2022-12-08T19:50:56.959Z,100686.91
2022-12-08T19:53:23.724Z,100614.59
2022-12-08T19:55:50.734Z,100630.22
2022-12-08T19:58:17.392Z,100627.78
2022-12-08T20:00:43.804Z,100619.44
2022-12-08T20:03:15.058Z,100651.97
2022-12-08T20:05:42.203Z,100684.41
2022-12-08T20:08:09.361Z,100700.16
2022-12-08T20:10:38.653Z,100703.09
2022-12-08T20:13:06.168Z,100625.84
2022-12-08T20:15:32.689Z,100692.00
2022-12-08T20:17:59.182Z,100698.13
2022-12-08T20:20:25.580Z,100688.63
2022-12-08T20:22:51.983Z,100693.25
2022-12-08T20:25:19.029Z,100685.84
2022-12-08T20:27:45.736Z,100692.97
2022-12-08T20:30:17.013Z,100656.19
2022-12-08T20:32:44.184Z,100617.53
2022-12-08T20:35:10.656Z,100706.41
2022-12-08T20:37:37.116Z,100709.56
2022-12-08T20:40:04.745Z,100652.38
2022-12-08T20:42:31.220Z,100623.84
2022-12-08T20:44:57.675Z,100712.16
2022-12-08T20:47:24.303Z,100717.31
2022-12-08T20:49:50.949Z,100718.78
2022-12-08T20:52:18.488Z,100714.03
2022-12-08T20:54:45.050Z,100708.94
2022-12-08T20:57:11.646Z,100680.38
2022-12-08T20:59:38.366Z,100619.44
2022-12-08T21:02:04.965Z,100738.69
2022-12-08T21:04:31.603Z,100715.78
2022-12-08T21:06:58.155Z,100748.81
2022-12-08T21:09:24.785Z,100754.78
2022-12-08T21:11:51.307Z,100676.03
2022-12-08T21:14:17.975Z,100754.25
2022-12-08T21:16:44.580Z,100754.97
2022-12-08T21:19:11.988Z,100755.38
2022-12-08T21:21:38.791Z,100768.53
2022-12-08T21:24:05.773Z,100753.34
2022-12-08T21:26:32.453Z,100751.88
2022-12-08T21:28:59.086Z,100675.25
2022-12-08T21:31:26.030Z,100754.00
2022-12-08T21:33:52.955Z,100756.34
2022-12-08T21:36:21.296Z,100746.38
2022-12-08T21:38:48.360Z,100767.06
2022-12-08T21:41:18.024Z,100681.88
2022-12-08T21:43:44.490Z,100772.03
2022-12-08T21:46:15.685Z,100771.78
2022-12-08T21:48:42.590Z,100767.88
2022-12-08T21:51:09.283Z,100704.06
2022-12-08T21:53:35.820Z,100766.66
2022-12-08T21:56:02.294Z,100752.88
2022-12-08T21:58:28.911Z,100769.66
2022-12-08T22:00:55.645Z,100697.72
2022-12-08T22:03:22.511Z,100777.31
2022-12-08T22:05:49.047Z,100763.13
2022-12-08T22:08:15.672Z,100767.44
2022-12-08T22:10:47.319Z,100765.94
2022-12-08T22:13:13.925Z,100763.53
2022-12-08T22:15:40.358Z,100766.41
2022-12-08T22:18:06.984Z,100767.06
2022-12-08T22:20:33.758Z,100775.34
2022-12-08T22:23:00.263Z,100772.25
2022-12-08T22:25:26.832Z,100778.63
2022-12-08T22:27:53.241Z,100787.00
2022-12-08T22:30:19.899Z,100703.19
2022-12-08T22:32:46.612Z,100780.25
2022-12-08T22:35:13.159Z,100770.16
2022-12-08T22:37:39.523Z,100750.84
2022-12-08T22:40:07.497Z,100755.97
2022-12-08T22:42:34.135Z,100806.91
2022-12-08T22:45:00.613Z,100784.59
2022-12-08T22:47:27.259Z,100758.69
2022-12-08T22:49:53.677Z,100710.75
2022-12-08T22:52:20.251Z,100737.47
2022-12-08T22:54:46.809Z,100779.59
2022-12-08T22:57:13.319Z,100785.69
2022-12-08T22:59:39.772Z,100684.41
2022-12-08T23:02:07.486Z,100761.66
2022-12-08T23:04:34.791Z,100783.25
2022-12-08T23:07:02.032Z,100787.59
2022-12-08T23:09:28.517Z,100772.56
2022-12-08T23:11:55.786Z,100782.75
2022-12-08T23:14:22.656Z,100786.38
2022-12-08T23:16:49.245Z,100776.78
2022-12-08T23:19:15.765Z,100693.88
2022-12-08T23:21:42.284Z,100776.38
2022-12-08T23:24:08.730Z,100705.22
2022-12-08T23:26:35.451Z,100785.31
2022-12-08T23:29:02.308Z,100768.94
2022-12-08T23:31:29.071Z,100714.00
2022-12-08T23:33:56.068Z,100767.19
2022-12-08T23:36:23.638Z,100775.50
2022-12-08T23:38:50.106Z,100723.53
2022-12-08T23:41:16.788Z,100791.28
2022-12-08T23:43:51.365Z,100718.94
2022-12-08T23:46:20.277Z,100796.13
2022-12-08T23:48:47.382Z,100809.88
2022-12-08T23:51:14.543Z,100790.13
2022-12-08T23:53:41.590Z,100797.84
2022-12-08T23:56:11.168Z,100802.28
2022-12-08T23:58:38.033Z,100806.19
